sensor_id;sensor_type;location;lat;lon;timestamp;pressure;altitude;pressure_sealevel;temperature;humidity
12775;BME280;6451;42.630;23.382;2023-02-10T00:01:29;96164.50;;;-5.39;100.00
12775;BME280;6451;42.630;23.382;2023-02-10T00:03:57;96122.53;;;-5.69;100.00
12775;BME280;6451;42.630;23.382;2023-02-10T00:06:26;96155.97;;;-5.35;100.00
12775;BME280;6451;42.630;23.382;2023-02-10T00:08:55;96160.84;;;-5.38;100.00
12775;BME280;6451;42.630;23.382;2023-02-10T00:11:23;96164.69;;;-5.47;100.00
12775;BME280;6451;42.630;23.382;2023-02-10T00:14:11;96165.53;;;-5.40;100.00
12775;BME280;6451;42.630;23.382;2023-02-10T00:16:42;96143.72;;;-5.62;100.00
12775;BME280;6451;42.630;23.382;2023-02-10T00:19:09;96149.44;;;-5.58;100.00
12775;BME280;6451;42.630;23.382;2023-02-10T00:21:37;96135.56;;;-5.74;100.00
12775;BME280;6451;42.630;23.382;2023-02-10T00:24:04;96135.75;;;-5.69;100.00
12775;BME280;6451;42.630;23.382;2023-02-10T00:26:31;96158.19;;;-5.58;100.00
12775;BME280;6451;42.630;23.382;2023-02-10T00:28:58;96156.53;;;-5.52;100.00
12775;BME280;6451;42.630;23.382;2023-02-10T00:31:25;96153.09;;;-5.66;100.00
12775;BME280;6451;42.630;23.382;2023-02-10T00:33:52;96117.84;;;-5.93;100.00
12775;BME280;6451;42.630;23.382;2023-02-10T00:36:19;96150.63;;;-5.61;100.00
12775;BME280;6451;42.630;23.382;2023-02-10T00:38:49;96150.66;;;-5.48;100.00
12775;BME280;6451;42.630;23.382;2023-02-10T00:41:17;96131.69;;;-5.78;100.00
12775;BME280;6451;42.630;23.382;2023-02-10T00:43:45;96141.63;;;-5.87;100.00
12775;BME280;6451;42.630;23.382;2023-02-10T00:46:15;96127.56;;;-6.07;100.00
12775;BME280;6451;42.630;23.382;2023-02-10T00:48:43;96137.38;;;-5.94;100.00
12775;BME280;6451;42.630;23.382;2023-02-10T00:51:13;96135.53;;;-5.87;100.00
12775;BME280;6451;42.630;23.382;2023-02-10T00:53:45;96132.47;;;-6.04;100.00
12775;BME280;6451;42.630;23.382;2023-02-10T00:56:17;96114.75;;;-6.10;100.00
12775;BME280;6451;42.630;23.382;2023-02-10T00:58:44;96129.44;;;-5.94;100.00
12775;BME280;6451;42.630;23.382;2023-02-10T01:01:11;96106.59;;;-6.15;100.00
12775;BME280;6451;42.630;23.382;2023-02-10T01:03:39;96117.50;;;-6.31;100.00
12775;BME280;6451;42.630;23.382;2023-02-10T01:06:08;96123.03;;;-6.26;100.00
12775;BME280;6451;42.630;23.382;2023-02-10T01:08:35;96123.41;;;-6.29;100.00
12775;BME280;6451;42.630;23.382;2023-02-10T01:11:05;96098.31;;;-6.53;100.00
12775;BME280;6451;42.630;23.382;2023-02-10T01:13:34;96055.19;;;-6.74;100.00
12775;BME280;6451;42.630;23.382;2023-02-10T01:16:04;96088.84;;;-6.41;100.00
12775;BME280;6451;42.630;23.382;2023-02-10T01:18:31;96019.06;;;-7.08;100.00
12775;BME280;6451;42.630;23.382;2023-02-10T01:20:58;96114.22;;;-6.40;100.00
12775;BME280;6451;42.630;23.382;2023-02-10T01:23:24;96111.81;;;-6.35;100.00
12775;BME280;6451;42.630;23.382;2023-02-10T01:25:51;96085.97;;;-6.46;100.00
12775;BME280;6451;42.630;23.382;2023-02-10T01:28:19;96102.91;;;-6.27;100.00
12775;BME280;6451;42.630;23.382;2023-02-10T01:30:47;96090.06;;;-6.37;100.00
12775;BME280;6451;42.630;23.382;2023-02-10T01:33:15;96103.47;;;-6.38;100.00
12775;BME280;6451;42.630;23.382;2023-02-10T01:35:42;96106.91;;;-6.38;100.00
12775;BME280;6451;42.630;23.382;2023-02-10T01:38:09;96069.41;;;-6.68;100.00
12775;BME280;6451;42.630;23.382;2023-02-10T01:40:36;96098.47;;;-6.61;100.00
12775;BME280;6451;42.630;23.382;2023-02-10T01:43:04;96079.53;;;-6.78;100.00
12775;BME280;6451;42.630;23.382;2023-02-10T01:45:37;96046.31;;;-7.01;100.00
12775;BME280;6451;42.630;23.382;2023-02-10T01:48:07;96099.25;;;-6.67;100.00
12775;BME280;6451;42.630;23.382;2023-02-10T01:50:37;96092.31;;;-6.75;100.00
12775;BME280;6451;42.630;23.382;2023-02-10T01:53:05;96089.69;;;-6.75;100.00
12775;BME280;6451;42.630;23.382;2023-02-10T01:55:33;96090.66;;;-6.83;100.00
12775;BME280;6451;42.630;23.382;2023-02-10T01:58:05;95929.22;;;-7.82;100.00
12775;BME280;6451;42.630;23.382;2023-02-10T02:00:33;96088.88;;;-6.76;100.00
12775;BME280;6451;42.630;23.382;2023-02-10T02:03:01;96080.50;;;-6.86;100.00
12775;BME280;6451;42.630;23.382;2023-02-10T02:05:32;96073.22;;;-6.77;100.00
12775;BME280;6451;42.630;23.382;2023-02-10T02:08:03;96074.75;;;-6.96;100.00
12775;BME280;6451;42.630;23.382;2023-02-10T02:10:58;96057.63;;;-7.07;100.00
12775;BME280;6451;42.630;23.382;2023-02-10T02:13:43;96068.69;;;-6.96;100.00
12775;BME280;6451;42.630;23.382;2023-02-10T02:16:25;96049.09;;;-7.09;100.00
12775;BME280;6451;42.630;23.382;2023-02-10T02:18:59;96054.19;;;-7.07;100.00
12775;BME280;6451;42.630;23.382;2023-02-10T02:24:51;96039.69;;;-7.24;100.00
12775;BME280;6451;42.630;23.382;2023-02-10T02:27:52;96037.03;;;-7.24;100.00
12775;BME280;6451;42.630;23.382;2023-02-10T02:30:40;96058.75;;;-7.22;100.00
12775;BME280;6451;42.630;23.382;2023-02-10T02:33:12;96048.41;;;-7.24;100.00
12775;BME280;6451;42.630;23.382;2023-02-10T02:35:43;96025.75;;;-7.46;100.00
12775;BME280;6451;42.630;23.382;2023-02-10T02:38:11;96045.50;;;-7.36;100.00
12775;BME280;6451;42.630;23.382;2023-02-10T02:40:39;96050.47;;;-7.19;100.00
12775;BME280;6451;42.630;23.382;2023-02-10T02:43:06;96049.22;;;-7.23;100.00
12775;BME280;6451;42.630;23.382;2023-02-10T02:45:39;96045.81;;;-7.17;100.00
12775;BME280;6451;42.630;23.382;2023-02-10T02:51:04;96003.38;;;-7.57;100.00
12775;BME280;6451;42.630;23.382;2023-02-10T02:53:37;96046.63;;;-7.17;100.00
12775;BME280;6451;42.630;23.382;2023-02-10T02:56:12;96039.88;;;-7.26;100.00
12775;BME280;6451;42.630;23.382;2023-02-10T02:58:48;96052.16;;;-7.12;100.00
12775;BME280;6451;42.630;23.382;2023-02-10T03:01:20;96029.28;;;-7.33;100.00
12775;BME280;6451;42.630;23.382;2023-02-10T03:03:53;96036.03;;;-7.23;100.00
12775;BME280;6451;42.630;23.382;2023-02-10T03:06:26;96041.00;;;-7.07;100.00
12775;BME280;6451;42.630;23.382;2023-02-10T03:08:53;96037.19;;;-7.05;100.00
12775;BME280;6451;42.630;23.382;2023-02-10T03:11:21;95961.91;;;-7.42;100.00
12775;BME280;6451;42.630;23.382;2023-02-10T03:13:48;96046.75;;;-6.97;100.00
12775;BME280;6451;42.630;23.382;2023-02-10T03:16:17;96023.53;;;-7.08;100.00
12775;BME280;6451;42.630;23.382;2023-02-10T03:18:46;96051.66;;;-6.87;100.00
12775;BME280;6451;42.630;23.382;2023-02-10T03:21:17;96048.88;;;-6.79;100.00
12775;BME280;6451;42.630;23.382;2023-02-10T03:23:43;96053.16;;;-6.72;100.00
12775;BME280;6451;42.630;23.382;2023-02-10T03:26:12;96027.31;;;-6.89;100.00
12775;BME280;6451;42.630;23.382;2023-02-10T03:28:39;96054.19;;;-6.73;100.00
12775;BME280;6451;42.630;23.382;2023-02-10T03:31:07;96053.41;;;-6.60;100.00
12775;BME280;6451;42.630;23.382;2023-02-10T03:33:36;96024.56;;;-6.61;100.00
12775;BME280;6451;42.630;23.382;2023-02-10T03:36:08;96048.63;;;-6.43;100.00
12775;BME280;6451;42.630;23.382;2023-02-10T03:38:38;96042.88;;;-6.53;100.00
12775;BME280;6451;42.630;23.382;2023-02-10T03:41:05;95989.56;;;-6.90;100.00
12775;BME280;6451;42.630;23.382;2023-02-10T03:43:32;96008.53;;;-6.66;100.00
12775;BME280;6451;42.630;23.382;2023-02-10T03:46:00;96028.63;;;-6.65;100.00
12775;BME280;6451;42.630;23.382;2023-02-10T03:48:27;96035.13;;;-6.61;100.00
12775;BME280;6451;42.630;23.382;2023-02-10T03:50:56;96025.97;;;-6.72;100.00
12775;BME280;6451;42.630;23.382;2023-02-10T03:53:24;95984.66;;;-6.93;100.00
12775;BME280;6451;42.630;23.382;2023-02-10T03:55:52;96034.13;;;-6.54;100.00
12775;BME280;6451;42.630;23.382;2023-02-10T03:58:20;96024.41;;;-6.53;100.00
12775;BME280;6451;42.630;23.382;2023-02-10T04:00:50;95955.41;;;-7.05;100.00
12775;BME280;6451;42.630;23.382;2023-02-10T04:03:20;96042.44;;;-6.63;100.00
12775;BME280;6451;42.630;23.382;2023-02-10T04:05:47;96035.94;;;-6.61;100.00
12775;BME280;6451;42.630;23.382;2023-02-10T04:08:13;96016.69;;;-6.48;100.00
12775;BME280;6451;42.630;23.382;2023-02-10T04:10:40;96029.91;;;-6.48;100.00
12775;BME280;6451;42.630;23.382;2023-02-10T04:13:09;95989.06;;;-6.59;100.00
12775;BME280;6451;42.630;23.382;2023-02-10T04:15:36;96029.13;;;-6.42;100.00
12775;BME280;6451;42.630;23.382;2023-02-10T04:18:03;96010.97;;;-6.65;100.00
12775;BME280;6451;42.630;23.382;2023-02-10T04:20:31;96034.16;;;-6.47;100.00
12775;BME280;6451;42.630;23.382;2023-02-10T04:22:58;96005.06;;;-6.74;100.00
12775;BME280;6451;42.630;23.382;2023-02-10T04:25:26;96019.63;;;-6.78;100.00
12775;BME280;6451;42.630;23.382;2023-02-10T04:27:53;96032.72;;;-6.56;100.00
12775;BME280;6451;42.630;23.382;2023-02-10T04:30:22;96032.13;;;-6.58;100.00
12775;BME280;6451;42.630;23.382;2023-02-10T04:32:50;95975.69;;;-7.05;100.00
12775;BME280;6451;42.630;23.382;2023-02-10T04:35:17;96003.94;;;-6.92;100.00
12775;BME280;6451;42.630;23.382;2023-02-10T04:37:44;95912.38;;;-7.46;100.00
12775;BME280;6451;42.630;23.382;2023-02-10T04:40:11;95987.06;;;-6.98;100.00
12775;BME280;6451;42.630;23.382;2023-02-10T04:42:38;96039.13;;;-6.79;100.00
12775;BME280;6451;42.630;23.382;2023-02-10T04:45:05;96033.59;;;-6.84;100.00
12775;BME280;6451;42.630;23.382;2023-02-10T04:47:35;96016.06;;;-6.98;100.00
12775;BME280;6451;42.630;23.382;2023-02-10T04:50:02;96035.63;;;-6.86;100.00
12775;BME280;6451;42.630;23.382;2023-02-10T04:52:30;96050.25;;;-6.90;100.00
12775;BME280;6451;42.630;23.382;2023-02-10T04:54:56;96043.72;;;-6.94;100.00
12775;BME280;6451;42.630;23.382;2023-02-10T04:57:23;95837.72;;;-8.29;100.00
12775;BME280;6451;42.630;23.382;2023-02-10T04:59:51;96049.56;;;-6.98;100.00
12775;BME280;6451;42.630;23.382;2023-02-10T05:02:19;96034.41;;;-6.83;100.00
12775;BME280;6451;42.630;23.382;2023-02-10T05:04:48;96044.81;;;-6.27;100.00
12775;BME280;6451;42.630;23.382;2023-02-10T05:07:15;95945.50;;;-6.83;100.00
12775;BME280;6451;42.630;23.382;2023-02-10T05:09:42;96042.81;;;-5.99;100.00
12775;BME280;6451;42.630;23.382;2023-02-10T05:12:09;96054.97;;;-6.24;100.00
12775;BME280;6451;42.630;23.382;2023-02-10T05:14:37;96047.72;;;-6.63;100.00
12775;BME280;6451;42.630;23.382;2023-02-10T05:17:04;96045.63;;;-6.81;100.00
12775;BME280;6451;42.630;23.382;2023-02-10T05:19:32;96051.22;;;-6.97;100.00
12775;BME280;6451;42.630;23.382;2023-02-10T05:22:01;96066.41;;;-7.00;100.00
12775;BME280;6451;42.630;23.382;2023-02-10T05:24:29;96055.66;;;-6.98;100.00
12775;BME280;6451;42.630;23.382;2023-02-10T05:26:56;96056.81;;;-7.07;100.00
12775;BME280;6451;42.630;23.382;2023-02-10T05:29:23;96077.78;;;-6.99;100.00
12775;BME280;6451;42.630;23.382;2023-02-10T05:31:50;95986.47;;;-6.93;100.00
12775;BME280;6451;42.630;23.382;2023-02-10T05:34:17;96081.38;;;-6.72;100.00
12775;BME280;6451;42.630;23.382;2023-02-10T05:36:44;96088.44;;;-6.79;100.00
12775;BME280;6451;42.630;23.382;2023-02-10T05:39:12;96090.00;;;-6.91;100.00
12775;BME280;6451;42.630;23.382;2023-02-10T05:41:52;96086.44;;;-7.12;100.00
12775;BME280;6451;42.630;23.382;2023-02-10T05:44:20;96096.63;;;-7.02;100.00
12775;BME280;6451;42.630;23.382;2023-02-10T05:46:49;96093.38;;;-7.04;100.00
12775;BME280;6451;42.630;23.382;2023-02-10T05:49:16;96097.94;;;-5.76;100.00
12775;BME280;6451;42.630;23.382;2023-02-10T05:51:44;96090.53;;;-4.61;100.00
12775;BME280;6451;42.630;23.382;2023-02-10T05:54:12;96086.09;;;-4.67;100.00
12775;BME280;6451;42.630;23.382;2023-02-10T05:56:40;96107.53;;;-5.02;100.00
12775;BME280;6451;42.630;23.382;2023-02-10T05:59:07;96099.00;;;-5.50;100.00
12775;BME280;6451;42.630;23.382;2023-02-10T06:01:35;96110.31;;;-5.83;100.00
12775;BME280;6451;42.630;23.382;2023-02-10T06:04:01;96103.78;;;-6.07;100.00
12775;BME280;6451;42.630;23.382;2023-02-10T06:06:28;96078.09;;;-6.33;100.00
12775;BME280;6451;42.630;23.382;2023-02-10T06:08:56;96107.56;;;-6.36;100.00
12775;BME280;6451;42.630;23.382;2023-02-10T06:11:26;96115.28;;;-6.34;100.00
12775;BME280;6451;42.630;23.382;2023-02-10T06:13:52;96108.00;;;-6.26;100.00
12775;BME280;6451;42.630;23.382;2023-02-10T06:16:19;96099.38;;;-6.48;100.00
12775;BME280;6451;42.630;23.382;2023-02-10T06:18:46;96114.00;;;-6.45;100.00
12775;BME280;6451;42.630;23.382;2023-02-10T06:21:13;96093.38;;;-6.69;100.00
12775;BME280;6451;42.630;23.382;2023-02-10T06:23:42;96116.47;;;-6.43;100.00
12775;BME280;6451;42.630;23.382;2023-02-10T06:26:10;96131.97;;;-6.27;100.00
12775;BME280;6451;42.630;23.382;2023-02-10T06:28:38;96126.00;;;-6.42;100.00
12775;BME280;6451;42.630;23.382;2023-02-10T06:31:05;96128.28;;;-6.33;100.00
12775;BME280;6451;42.630;23.382;2023-02-10T06:33:34;96134.41;;;-6.26;100.00
12775;BME280;6451;42.630;23.382;2023-02-10T06:36:01;96125.31;;;-6.17;100.00
12775;BME280;6451;42.630;23.382;2023-02-10T06:38:30;96125.13;;;-6.08;100.00
12775;BME280;6451;42.630;23.382;2023-02-10T06:40:57;96137.66;;;-6.24;100.00
12775;BME280;6451;42.630;23.382;2023-02-10T06:43:24;96140.78;;;-6.00;100.00
12775;BME280;6451;42.630;23.382;2023-02-10T06:45:53;96128.13;;;-6.18;100.00
12775;BME280;6451;42.630;23.382;2023-02-10T06:48:20;96093.09;;;-6.40;100.00
12775;BME280;6451;42.630;23.382;2023-02-10T06:50:48;96144.91;;;-5.98;100.00
12775;BME280;6451;42.630;23.382;2023-02-10T06:53:16;96139.03;;;-5.73;100.00
12775;BME280;6451;42.630;23.382;2023-02-10T06:55:43;96086.25;;;-6.28;100.00
12775;BME280;6451;42.630;23.382;2023-02-10T06:58:10;96151.25;;;-5.66;100.00
12775;BME280;6451;42.630;23.382;2023-02-10T07:00:38;96145.38;;;-5.41;100.00
12775;BME280;6451;42.630;23.382;2023-02-10T07:03:07;96134.75;;;-5.74;100.00
12775;BME280;6451;42.630;23.382;2023-02-10T07:05:34;96083.28;;;-5.85;100.00
12775;BME280;6451;42.630;23.382;2023-02-10T07:08:03;96156.59;;;-5.26;100.00
12775;BME280;6451;42.630;23.382;2023-02-10T07:10:30;96150.50;;;-5.26;100.00
12775;BME280;6451;42.630;23.382;2023-02-10T07:12:57;96143.56;;;-5.27;100.00
12775;BME280;6451;42.630;23.382;2023-02-10T07:15:24;96151.72;;;-5.16;100.00
12775;BME280;6451;42.630;23.382;2023-02-10T07:17:51;96140.31;;;-5.16;100.00
12775;BME280;6451;42.630;23.382;2023-02-10T07:20:20;96135.03;;;-5.03;100.00
12775;BME280;6451;42.630;23.382;2023-02-10T07:22:47;96138.66;;;-4.91;100.00
12775;BME280;6451;42.630;23.382;2023-02-10T07:25:14;96113.03;;;-5.04;100.00
12775;BME280;6451;42.630;23.382;2023-02-10T07:27:41;96136.84;;;-4.90;100.00
12775;BME280;6451;42.630;23.382;2023-02-10T07:30:10;96123.59;;;-4.77;100.00
12775;BME280;6451;42.630;23.382;2023-02-10T07:32:37;96140.28;;;-4.63;100.00
12775;BME280;6451;42.630;23.382;2023-02-10T07:35:04;96133.34;;;-4.64;100.00
12775;BME280;6451;42.630;23.382;2023-02-10T07:37:32;96132.53;;;-4.71;100.00
12775;BME280;6451;42.630;23.382;2023-02-10T07:39:59;96130.91;;;-4.66;100.00
12775;BME280;6451;42.630;23.382;2023-02-10T07:42:26;96128.47;;;-4.74;100.00
12775;BME280;6451;42.630;23.382;2023-02-10T07:44:53;96123.34;;;-4.56;100.00
12775;BME280;6451;42.630;23.382;2023-02-10T07:47:20;96128.84;;;-4.51;100.00
12775;BME280;6451;42.630;23.382;2023-02-10T07:49:47;96094.84;;;-4.67;100.00
12775;BME280;6451;42.630;23.382;2023-02-10T07:52:14;96119.06;;;-4.50;100.00
12775;BME280;6451;42.630;23.382;2023-02-10T07:54:42;96121.25;;;-4.40;100.00
12775;BME280;6451;42.630;23.382;2023-02-10T07:57:09;96127.97;;;-4.31;100.00
12775;BME280;6451;42.630;23.382;2023-02-10T07:59:36;96128.69;;;-4.04;100.00
12775;BME280;6451;42.630;23.382;2023-02-10T08:02:03;96136.41;;;-4.03;100.00
12775;BME280;6451;42.630;23.382;2023-02-10T08:04:31;96129.00;;;-3.87;100.00
12775;BME280;6451;42.630;23.382;2023-02-10T08:06:58;96133.84;;;-3.78;100.00
12775;BME280;6451;42.630;23.382;2023-02-10T08:09:29;96098.53;;;-3.72;100.00
12775;BME280;6451;42.630;23.382;2023-02-10T08:11:57;96119.88;;;-3.28;100.00
12775;BME280;6451;42.630;23.382;2023-02-10T08:14:25;96133.56;;;-3.31;100.00
12775;BME280;6451;42.630;23.382;2023-02-10T08:16:52;96125.31;;;-3.48;100.00
12775;BME280;6451;42.630;23.382;2023-02-10T08:19:19;96101.94;;;-3.33;100.00
12775;BME280;6451;42.630;23.382;2023-02-10T08:21:46;96127.59;;;-2.95;100.00
12775;BME280;6451;42.630;23.382;2023-02-10T08:24:13;96111.69;;;-3.52;100.00
12775;BME280;6451;42.630;23.382;2023-02-10T08:26:40;96054.25;;;-3.46;100.00
12775;BME280;6451;42.630;23.382;2023-02-10T08:29:10;96109.25;;;-2.78;100.00
12775;BME280;6451;42.630;23.382;2023-02-10T08:31:38;96120.22;;;-2.50;100.00
12775;BME280;6451;42.630;23.382;2023-02-10T08:34:05;96126.44;;;-2.81;100.00
12775;BME280;6451;42.630;23.382;2023-02-10T08:36:32;96118.19;;;-2.73;100.00
12775;BME280;6451;42.630;23.382;2023-02-10T08:38:58;96120.00;;;-2.48;100.00
12775;BME280;6451;42.630;23.382;2023-02-10T08:41:25;96123.09;;;-2.52;100.00
12775;BME280;6451;42.630;23.382;2023-02-10T08:43:57;96109.34;;;-2.67;100.00
12775;BME280;6451;42.630;23.382;2023-02-10T08:46:25;96117.56;;;-2.68;100.00
12775;BME280;6451;42.630;23.382;2023-02-10T08:48:52;96079.06;;;-2.84;100.00
12775;BME280;6451;42.630;23.382;2023-02-10T08:51:19;96103.97;;;-2.60;100.00
12775;BME280;6451;42.630;23.382;2023-02-10T08:53:46;96126.69;;;-2.64;100.00
12775;BME280;6451;42.630;23.382;2023-02-10T08:56:15;95961.25;;;-3.51;100.00
12775;BME280;6451;42.630;23.382;2023-02-10T08:58:43;96117.28;;;-2.42;100.00
12775;BME280;6451;42.630;23.382;2023-02-10T09:01:12;96083.75;;;-2.25;99.34
12775;BME280;6451;42.630;23.382;2023-02-10T09:03:41;96110.47;;;-2.01;97.33
12775;BME280;6451;42.630;23.382;2023-02-10T09:06:13;96107.72;;;-1.94;96.46
12775;BME280;6451;42.630;23.382;2023-02-10T09:08:41;96101.16;;;-2.10;96.29
12775;BME280;6451;42.630;23.382;2023-02-10T09:11:08;96106.84;;;-2.25;95.71
12775;BME280;6451;42.630;23.382;2023-02-10T09:13:36;96095.22;;;-1.76;96.89
12775;BME280;6451;42.630;23.382;2023-02-10T09:16:05;96084.16;;;-1.91;97.04
12775;BME280;6451;42.630;23.382;2023-02-10T09:18:32;96083.63;;;-1.70;95.18
12775;BME280;6451;42.630;23.382;2023-02-10T09:21:01;96101.59;;;-1.65;94.78
12775;BME280;6451;42.630;23.382;2023-02-10T09:23:28;96078.31;;;-1.70;95.74
12775;BME280;6451;42.630;23.382;2023-02-10T09:25:56;96077.59;;;-1.77;92.78
12775;BME280;6451;42.630;23.382;2023-02-10T09:28:24;96072.09;;;-1.63;93.17
12775;BME280;6451;42.630;23.382;2023-02-10T09:30:51;96092.78;;;-1.24;92.97
12775;BME280;6451;42.630;23.382;2023-02-10T09:33:18;96097.97;;;-1.41;93.30
12775;BME280;6451;42.630;23.382;2023-02-10T09:35:45;96096.91;;;-1.51;92.03
12775;BME280;6451;42.630;23.382;2023-02-10T09:38:14;96075.94;;;-1.59;90.53
12775;BME280;6451;42.630;23.382;2023-02-10T09:40:48;96081.94;;;-1.22;89.78
12775;BME280;6451;42.630;23.382;2023-02-10T09:43:26;96080.97;;;-1.40;90.27
12775;BME280;6451;42.630;23.382;2023-02-10T09:46:01;96046.94;;;-1.37;90.71
12775;BME280;6451;42.630;23.382;2023-02-10T09:48:35;96069.69;;;-0.88;88.85
12775;BME280;6451;42.630;23.382;2023-02-10T09:51:13;96010.81;;;-1.45;88.91
12775;BME280;6451;42.630;23.382;2023-02-10T09:53:43;96065.03;;;-0.93;88.06
12775;BME280;6451;42.630;23.382;2023-02-10T09:56:16;96028.56;;;-1.04;88.97
12775;BME280;6451;42.630;23.382;2023-02-10T09:58:50;96003.78;;;-1.04;86.08
12775;BME280;6451;42.630;23.382;2023-02-10T10:01:21;96066.53;;;-0.85;86.06
12775;BME280;6451;42.630;23.382;2023-02-10T10:03:55;96005.06;;;-1.07;86.62
12775;BME280;6451;42.630;23.382;2023-02-10T10:06:27;96047.06;;;-0.62;85.88
12775;BME280;6451;42.630;23.382;2023-02-10T10:09:01;96037.22;;;-0.62;85.72
12775;BME280;6451;42.630;23.382;2023-02-10T10:11:36;96000.41;;;-0.88;84.23
12775;BME280;6451;42.630;23.382;2023-02-10T10:14:05;96037.97;;;-0.26;84.12
12775;BME280;6451;42.630;23.382;2023-02-10T10:19:32;96000.59;;;-0.14;82.48
12775;BME280;6451;42.630;23.382;2023-02-10T10:22:12;96007.56;;;-0.25;81.45
12775;BME280;6451;42.630;23.382;2023-02-10T10:25:01;95955.63;;;-0.63;81.28
12775;BME280;6451;42.630;23.382;2023-02-10T10:27:43;96030.44;;;-0.29;80.93
12775;BME280;6451;42.630;23.382;2023-02-10T10:30:17;96003.44;;;-0.33;79.17
12775;BME280;6451;42.630;23.382;2023-02-10T10:32:46;96020.84;;;-0.42;79.16
12775;BME280;6451;42.630;23.382;2023-02-10T10:35:16;95973.91;;;-0.43;78.03
12775;BME280;6451;42.630;23.382;2023-02-10T10:37:44;95998.44;;;-0.29;79.06
12775;BME280;6451;42.630;23.382;2023-02-10T10:40:17;96012.50;;;-0.05;78.12
12775;BME280;6451;42.630;23.382;2023-02-10T10:42:47;96012.97;;;0.20;78.71
12775;BME280;6451;42.630;23.382;2023-02-10T10:45:19;96003.88;;;0.33;79.05
12775;BME280;6451;42.630;23.382;2023-02-10T10:47:49;95995.22;;;0.14;79.57
12775;BME280;6451;42.630;23.382;2023-02-10T10:50:20;95996.72;;;0.22;78.64
12775;BME280;6451;42.630;23.382;2023-02-10T10:52:52;95932.63;;;0.22;78.71
12775;BME280;6451;42.630;23.382;2023-02-10T10:55:23;95997.97;;;0.48;77.09
12775;BME280;6451;42.630;23.382;2023-02-10T10:57:52;95983.84;;;0.19;76.53
12775;BME280;6451;42.630;23.382;2023-02-10T11:00:23;95986.63;;;0.58;76.58
12775;BME280;6451;42.630;23.382;2023-02-10T11:02:53;95945.28;;;0.60;76.50
12775;BME280;6451;42.630;23.382;2023-02-10T11:05:21;95979.41;;;0.92;74.61
12775;BME280;6451;42.630;23.382;2023-02-10T11:07:50;95980.88;;;0.82;72.94
12775;BME280;6451;42.630;23.382;2023-02-10T11:10:26;95960.09;;;0.85;71.86
12775;BME280;6451;42.630;23.382;2023-02-10T11:12:54;95969.72;;;0.86;70.97
12775;BME280;6451;42.630;23.382;2023-02-10T11:15:37;95974.00;;;0.87;70.39
12775;BME280;6451;42.630;23.382;2023-02-10T11:18:07;95968.44;;;0.71;69.90
12775;BME280;6451;42.630;23.382;2023-02-10T11:20:40;95971.31;;;1.03;68.85
12775;BME280;6451;42.630;23.382;2023-02-10T11:23:14;95966.19;;;1.19;68.47
12775;BME280;6451;42.630;23.382;2023-02-10T11:25:46;95929.81;;;1.18;67.22
12775;BME280;6451;42.630;23.382;2023-02-10T11:28:19;95961.81;;;1.13;67.18
12775;BME280;6451;42.630;23.382;2023-02-10T11:30:52;95948.16;;;1.31;67.81
12775;BME280;6451;42.630;23.382;2023-02-10T11:33:24;95860.59;;;0.77;67.38
12775;BME280;6451;42.630;23.382;2023-02-10T11:35:54;95928.00;;;1.23;67.63
12775;BME280;6451;42.630;23.382;2023-02-10T11:38:25;95954.69;;;1.62;68.13
12775;BME280;6451;42.630;23.382;2023-02-10T11:40:55;95930.75;;;1.50;66.75
12775;BME280;6451;42.630;23.382;2023-02-10T11:43:30;95942.56;;;1.54;64.79
12775;BME280;6451;42.630;23.382;2023-02-10T11:45:59;95948.66;;;1.72;64.67
12775;BME280;6451;42.630;23.382;2023-02-10T11:48:27;95935.06;;;1.78;64.90
12775;BME280;6451;42.630;23.382;2023-02-10T11:51:03;95944.50;;;2.08;64.99
12775;BME280;6451;42.630;23.382;2023-02-10T11:53:33;95936.78;;;1.62;67.06
12775;BME280;6451;42.630;23.382;2023-02-10T11:56:06;95939.19;;;1.86;65.95
12775;BME280;6451;42.630;23.382;2023-02-10T11:58:46;95929.97;;;2.04;65.55
12775;BME280;6451;42.630;23.382;2023-02-10T12:01:50;95928.00;;;1.94;64.30
12775;BME280;6451;42.630;23.382;2023-02-10T12:04:49;95922.63;;;2.21;64.49
12775;BME280;6451;42.630;23.382;2023-02-10T12:07:25;95923.97;;;2.18;64.12
12775;BME280;6451;42.630;23.382;2023-02-10T12:10:02;95930.66;;;1.67;64.47
12775;BME280;6451;42.630;23.382;2023-02-10T12:12:40;95895.06;;;1.66;63.62
12775;BME280;6451;42.630;23.382;2023-02-10T12:15:15;95906.22;;;2.12;63.15
12775;BME280;6451;42.630;23.382;2023-02-10T12:17:51;95906.78;;;2.14;62.14
12775;BME280;6451;42.630;23.382;2023-02-10T12:20:32;95873.75;;;2.04;62.89
12775;BME280;6451;42.630;23.382;2023-02-10T12:23:20;95902.28;;;2.20;63.11
12775;BME280;6451;42.630;23.382;2023-02-10T12:26:02;95898.44;;;2.38;62.71
12775;BME280;6451;42.630;23.382;2023-02-10T12:28:43;95889.66;;;2.15;61.62
12775;BME280;6451;42.630;23.382;2023-02-10T12:31:22;95898.78;;;2.19;62.15
12775;BME280;6451;42.630;23.382;2023-02-10T12:34:05;95871.66;;;1.79;62.92
12775;BME280;6451;42.630;23.382;2023-02-10T12:36:41;95891.78;;;2.13;62.52
12775;BME280;6451;42.630;23.382;2023-02-10T12:39:14;95872.88;;;1.93;60.40
12775;BME280;6451;42.630;23.382;2023-02-10T12:41:56;95883.59;;;1.98;60.76
12775;BME280;6451;42.630;23.382;2023-02-10T12:44:39;95886.22;;;2.20;59.23
12775;BME280;6451;42.630;23.382;2023-02-10T12:47:21;95878.69;;;2.17;58.61
12775;BME280;6451;42.630;23.382;2023-02-10T12:50:07;95788.22;;;1.55;59.25
12775;BME280;6451;42.630;23.382;2023-02-10T12:52:49;95889.41;;;2.17;59.11
12775;BME280;6451;42.630;23.382;2023-02-10T12:55:22;95883.53;;;2.20;59.59
12775;BME280;6451;42.630;23.382;2023-02-10T12:57:52;95884.34;;;2.20;60.98
12775;BME280;6451;42.630;23.382;2023-02-10T13:00:27;95888.28;;;2.13;60.57
12775;BME280;6451;42.630;23.382;2023-02-10T13:02:57;95860.81;;;2.22;59.09
12775;BME280;6451;42.630;23.382;2023-02-10T13:05:31;95874.53;;;2.31;60.06
12775;BME280;6451;42.630;23.382;2023-02-10T13:08:00;95897.94;;;2.46;59.08
12775;BME280;6451;42.630;23.382;2023-02-10T13:10:32;95879.88;;;2.31;58.81
12775;BME280;6451;42.630;23.382;2023-02-10T13:13:03;95883.00;;;2.55;58.19
12775;BME280;6451;42.630;23.382;2023-02-10T13:15:37;95874.31;;;2.38;58.13
12775;BME280;6451;42.630;23.382;2023-02-10T13:18:17;95894.50;;;2.50;58.58
12775;BME280;6451;42.630;23.382;2023-02-10T13:20:51;95885.06;;;2.43;58.92